sensor_id;sensor_type;location;lat;lon;timestamp;P1;durP1;ratioP1;P2;durP2;ratioP2
75437;SDS011;64015;49.392;15.582;2024-01-15T00:02:01;6.22;;;2.03;;
75437;SDS011;64015;49.392;15.582;2024-01-15T00:04:28;3.22;;;1.65;;
75437;SDS011;64015;49.392;15.582;2024-01-15T00:06:54;6.07;;;2.83;;
75437;SDS011;64015;49.392;15.582;2024-01-15T00:09:19;3.42;;;1.80;;
75437;SDS011;64015;49.392;15.582;2024-01-15T00:11:45;7.65;;;3.95;;
75437;SDS011;64015;49.392;15.582;2024-01-15T00:14:11;3.25;;;1.70;;
75437;SDS011;64015;49.392;15.582;2024-01-15T00:16:42;5.53;;;2.55;;
75437;SDS011;64015;49.392;15.582;2024-01-15T00:19:08;6.20;;;2.30;;
75437;SDS011;64015;49.392;15.582;2024-01-15T00:21:34;4.57;;;2.65;;
75437;SDS011;64015;49.392;15.582;2024-01-15T00:23:59;6.20;;;2.85;;
75437;SDS011;64015;49.392;15.582;2024-01-15T00:26:25;10.45;;;2.97;;
75437;SDS011;64015;49.392;15.582;2024-01-15T00:28:51;4.85;;;2.25;;
75437;SDS011;64015;49.392;15.582;2024-01-15T00:31:17;5.40;;;2.08;;
75437;SDS011;64015;49.392;15.582;2024-01-15T00:33:43;5.90;;;2.28;;
75437;SDS011;64015;49.392;15.582;2024-01-15T00:36:09;5.72;;;2.72;;
75437;SDS011;64015;49.392;15.582;2024-01-15T00:38:34;4.63;;;1.60;;
75437;SDS011;64015;49.392;15.582;2024-01-15T00:41:00;6.35;;;2.47;;
75437;SDS011;64015;49.392;15.582;2024-01-15T00:43:26;6.97;;;2.53;;
75437;SDS011;64015;49.392;15.582;2024-01-15T00:45:52;6.72;;;2.78;;
75437;SDS011;64015;49.392;15.582;2024-01-15T00:48:17;4.68;;;2.35;;
75437;SDS011;64015;49.392;15.582;2024-01-15T00:50:43;5.53;;;2.60;;
75437;SDS011;64015;49.392;15.582;2024-01-15T00:53:11;4.30;;;1.63;;
75437;SDS011;64015;49.392;15.582;2024-01-15T00:55:37;4.90;;;1.92;;
75437;SDS011;64015;49.392;15.582;2024-01-15T00:58:03;6.25;;;2.47;;
75437;SDS011;64015;49.392;15.582;2024-01-15T01:00:29;4.32;;;2.10;;
75437;SDS011;64015;49.392;15.582;2024-01-15T01:02:55;5.60;;;2.50;;
75437;SDS011;64015;49.392;15.582;2024-01-15T01:05:20;4.75;;;2.00;;
75437;SDS011;64015;49.392;15.582;2024-01-15T01:07:48;5.22;;;2.25;;
75437;SDS011;64015;49.392;15.582;2024-01-15T01:13:48;3.58;;;1.88;;
75437;SDS011;64015;49.392;15.582;2024-01-15T01:20:06;4.47;;;2.67;;
75437;SDS011;64015;49.392;15.582;2024-01-15T01:22:34;4.82;;;2.10;;
75437;SDS011;64015;49.392;15.582;2024-01-15T01:25:00;4.20;;;1.80;;
75437;SDS011;64015;49.392;15.582;2024-01-15T01:27:26;3.53;;;1.40;;
75437;SDS011;64015;49.392;15.582;2024-01-15T01:32:55;4.03;;;2.10;;
75437;SDS011;64015;49.392;15.582;2024-01-15T01:35:22;4.38;;;1.80;;
75437;SDS011;64015;49.392;15.582;2024-01-15T01:48:11;5.75;;;2.65;;
75437;SDS011;64015;49.392;15.582;2024-01-15T01:50:41;3.85;;;2.05;;
75437;SDS011;64015;49.392;15.582;2024-01-15T01:53:07;5.70;;;2.67;;
75437;SDS011;64015;49.392;15.582;2024-01-15T01:55:53;6.78;;;2.75;;
75437;SDS011;64015;49.392;15.582;2024-01-15T01:58:31;6.32;;;1.90;;
75437;SDS011;64015;49.392;15.582;2024-01-15T02:01:03;4.40;;;2.40;;
75437;SDS011;64015;49.392;15.582;2024-01-15T02:03:38;6.43;;;2.88;;
75437;SDS011;64015;49.392;15.582;2024-01-15T02:06:05;4.75;;;2.50;;
75437;SDS011;64015;49.392;15.582;2024-01-15T02:08:31;3.53;;;2.15;;
75437;SDS011;64015;49.392;15.582;2024-01-15T02:11:07;4.10;;;1.85;;
75437;SDS011;64015;49.392;15.582;2024-01-15T02:13:32;7.25;;;2.63;;
75437;SDS011;64015;49.392;15.582;2024-01-15T02:15:58;4.28;;;1.67;;
75437;SDS011;64015;49.392;15.582;2024-01-15T02:18:24;5.10;;;1.80;;
75437;SDS011;64015;49.392;15.582;2024-01-15T02:20:49;5.55;;;2.53;;
75437;SDS011;64015;49.392;15.582;2024-01-15T02:23:15;5.28;;;2.38;;
75437;SDS011;64015;49.392;15.582;2024-01-15T02:25:42;5.65;;;1.85;;
75437;SDS011;64015;49.392;15.582;2024-01-15T02:28:14;5.30;;;2.15;;
75437;SDS011;64015;49.392;15.582;2024-01-15T02:30:42;2.92;;;1.45;;
75437;SDS011;64015;49.392;15.582;2024-01-15T02:33:20;3.58;;;1.88;;
75437;SDS011;64015;49.392;15.582;2024-01-15T02:36:05;5.13;;;1.60;;
75437;SDS011;64015;49.392;15.582;2024-01-15T02:38:31;7.22;;;2.42;;
75437;SDS011;64015;49.392;15.582;2024-01-15T02:40:56;7.07;;;2.60;;
75437;SDS011;64015;49.392;15.582;2024-01-15T02:47:03;6.32;;;2.70;;
75437;SDS011;64015;49.392;15.582;2024-01-15T02:49:30;3.72;;;2.00;;
75437;SDS011;64015;49.392;15.582;2024-01-15T02:52:03;6.32;;;2.13;;
75437;SDS011;64015;49.392;15.582;2024-01-15T02:54:29;6.55;;;1.85;;
75437;SDS011;64015;49.392;15.582;2024-01-15T02:56:55;7.60;;;2.80;;
75437;SDS011;64015;49.392;15.582;2024-01-15T02:59:23;8.45;;;3.55;;
75437;SDS011;64015;49.392;15.582;2024-01-15T03:01:49;5.13;;;2.20;;
75437;SDS011;64015;49.392;15.582;2024-01-15T03:04:15;6.35;;;2.90;;
75437;SDS011;64015;49.392;15.582;2024-01-15T03:06:40;5.88;;;2.70;;
75437;SDS011;64015;49.392;15.582;2024-01-15T03:09:06;9.85;;;3.40;;
75437;SDS011;64015;49.392;15.582;2024-01-15T03:11:38;8.02;;;3.40;;
75437;SDS011;64015;49.392;15.582;2024-01-15T03:14:04;8.50;;;2.97;;
75437;SDS011;64015;49.392;15.582;2024-01-15T03:16:30;8.98;;;3.47;;
75437;SDS011;64015;49.392;15.582;2024-01-15T03:18:56;6.45;;;2.83;;
75437;SDS011;64015;49.392;15.582;2024-01-15T03:21:21;6.85;;;4.10;;
75437;SDS011;64015;49.392;15.582;2024-01-15T03:23:47;10.00;;;3.42;;
75437;SDS011;64015;49.392;15.582;2024-01-15T03:26:12;9.10;;;3.63;;
75437;SDS011;64015;49.392;15.582;2024-01-15T03:28:38;5.63;;;2.22;;
75437;SDS011;64015;49.392;15.582;2024-01-15T03:31:04;9.23;;;2.95;;
75437;SDS011;64015;49.392;15.582;2024-01-15T03:33:29;9.60;;;4.30;;
75437;SDS011;64015;49.392;15.582;2024-01-15T03:35:55;8.55;;;3.40;;
75437;SDS011;64015;49.392;15.582;2024-01-15T03:38:22;8.82;;;3.33;;
75437;SDS011;64015;49.392;15.582;2024-01-15T03:40:48;5.90;;;3.20;;
75437;SDS011;64015;49.392;15.582;2024-01-15T03:43:17;8.85;;;4.13;;
75437;SDS011;64015;49.392;15.582;2024-01-15T03:45:43;10.85;;;3.30;;
75437;SDS011;64015;49.392;15.582;2024-01-15T03:48:08;6.22;;;2.45;;
75437;SDS011;64015;49.392;15.582;2024-01-15T03:50:34;7.93;;;2.80;;
75437;SDS011;64015;49.392;15.582;2024-01-15T03:53:03;10.35;;;4.15;;
75437;SDS011;64015;49.392;15.582;2024-01-15T03:58:37;11.88;;;5.10;;
75437;SDS011;64015;49.392;15.582;2024-01-15T04:01:09;4.30;;;2.70;;
75437;SDS011;64015;49.392;15.582;2024-01-15T04:03:41;5.25;;;3.33;;
75437;SDS011;64015;49.392;15.582;2024-01-15T04:06:07;6.45;;;3.35;;
75437;SDS011;64015;49.392;15.582;2024-01-15T04:08:32;7.38;;;3.08;;
75437;SDS011;64015;49.392;15.582;2024-01-15T04:11:04;7.35;;;2.83;;
75437;SDS011;64015;49.392;15.582;2024-01-15T04:13:33;8.75;;;2.92;;
75437;SDS011;64015;49.392;15.582;2024-01-15T04:16:08;11.10;;;3.92;;
75437;SDS011;64015;49.392;15.582;2024-01-15T04:18:34;7.72;;;3.40;;
75437;SDS011;64015;49.392;15.582;2024-01-15T04:21:06;7.78;;;3.72;;
75437;SDS011;64015;49.392;15.582;2024-01-15T04:23:34;12.68;;;5.63;;
75437;SDS011;64015;49.392;15.582;2024-01-15T04:26:09;14.35;;;5.82;;
75437;SDS011;64015;49.392;15.582;2024-01-15T04:28:47;12.68;;;3.95;;
75437;SDS011;64015;49.392;15.582;2024-01-15T04:31:31;8.63;;;3.35;;
75437;SDS011;64015;49.392;15.582;2024-01-15T04:33:56;13.07;;;3.85;;
75437;SDS011;64015;49.392;15.582;2024-01-15T04:36:22;8.50;;;3.78;;
75437;SDS011;64015;49.392;15.582;2024-01-15T04:38:48;9.07;;;3.85;;
75437;SDS011;64015;49.392;15.582;2024-01-15T04:41:14;12.02;;;4.10;;
75437;SDS011;64015;49.392;15.582;2024-01-15T04:43:53;10.77;;;4.78;;
75437;SDS011;64015;49.392;15.582;2024-01-15T04:46:20;13.48;;;4.72;;
75437;SDS011;64015;49.392;15.582;2024-01-15T04:48:46;11.60;;;5.85;;
75437;SDS011;64015;49.392;15.582;2024-01-15T04:51:12;10.48;;;3.83;;
75437;SDS011;64015;49.392;15.582;2024-01-15T04:53:38;10.88;;;4.32;;
75437;SDS011;64015;49.392;15.582;2024-01-15T04:56:04;13.07;;;4.88;;
75437;SDS011;64015;49.392;15.582;2024-01-15T04:58:40;9.20;;;2.80;;
75437;SDS011;64015;49.392;15.582;2024-01-15T05:01:12;9.88;;;4.32;;
75437;SDS011;64015;49.392;15.582;2024-01-15T05:03:37;15.23;;;7.28;;
75437;SDS011;64015;49.392;15.582;2024-01-15T05:06:03;12.50;;;5.72;;
75437;SDS011;64015;49.392;15.582;2024-01-15T05:08:29;10.30;;;3.67;;
75437;SDS011;64015;49.392;15.582;2024-01-15T05:11:04;17.00;;;5.47;;
75437;SDS011;64015;49.392;15.582;2024-01-15T05:13:30;11.48;;;3.97;;
75437;SDS011;64015;49.392;15.582;2024-01-15T05:15:55;8.50;;;4.15;;
75437;SDS011;64015;49.392;15.582;2024-01-15T05:18:21;13.02;;;4.30;;
75437;SDS011;64015;49.392;15.582;2024-01-15T05:20:47;7.80;;;4.68;;
75437;SDS011;64015;49.392;15.582;2024-01-15T05:23:12;12.85;;;5.20;;
75437;SDS011;64015;49.392;15.582;2024-01-15T05:25:38;11.98;;;5.45;;
75437;SDS011;64015;49.392;15.582;2024-01-15T05:28:05;11.13;;;4.28;;
75437;SDS011;64015;49.392;15.582;2024-01-15T05:30:31;12.85;;;5.57;;
75437;SDS011;64015;49.392;15.582;2024-01-15T05:32:56;16.08;;;7.05;;
75437;SDS011;64015;49.392;15.582;2024-01-15T05:35:26;12.93;;;5.07;;
75437;SDS011;64015;49.392;15.582;2024-01-15T05:37:58;13.10;;;5.90;;
75437;SDS011;64015;49.392;15.582;2024-01-15T05:40:24;10.43;;;5.22;;
75437;SDS011;64015;49.392;15.582;2024-01-15T05:42:49;10.43;;;4.57;;
75437;SDS011;64015;49.392;15.582;2024-01-15T05:45:15;14.43;;;6.70;;
75437;SDS011;64015;49.392;15.582;2024-01-15T05:47:41;14.02;;;5.50;;
75437;SDS011;64015;49.392;15.582;2024-01-15T05:50:08;8.82;;;4.13;;
75437;SDS011;64015;49.392;15.582;2024-01-15T05:52:33;14.40;;;6.32;;
75437;SDS011;64015;49.392;15.582;2024-01-15T05:54:59;11.20;;;4.13;;
75437;SDS011;64015;49.392;15.582;2024-01-15T05:57:25;14.07;;;5.40;;
75437;SDS011;64015;49.392;15.582;2024-01-15T05:59:53;15.65;;;6.88;;
75437;SDS011;64015;49.392;15.582;2024-01-15T06:02:19;16.00;;;5.57;;
75437;SDS011;64015;49.392;15.582;2024-01-15T06:08:31;14.57;;;5.30;;
75437;SDS011;64015;49.392;15.582;2024-01-15T06:13:41;9.60;;;4.45;;
75437;SDS011;64015;49.392;15.582;2024-01-15T06:16:14;12.65;;;5.47;;
75437;SDS011;64015;49.392;15.582;2024-01-15T06:18:57;11.93;;;4.45;;
75437;SDS011;64015;49.392;15.582;2024-01-15T06:21:41;12.18;;;5.53;;
75437;SDS011;64015;49.392;15.582;2024-01-15T06:24:13;9.55;;;4.68;;
75437;SDS011;64015;49.392;15.582;2024-01-15T06:26:40;12.05;;;5.68;;
75437;SDS011;64015;49.392;15.582;2024-01-15T06:29:06;13.98;;;5.68;;
75437;SDS011;64015;49.392;15.582;2024-01-15T06:31:31;14.65;;;7.22;;
75437;SDS011;64015;49.392;15.582;2024-01-15T06:33:57;16.45;;;7.53;;
75437;SDS011;64015;49.392;15.582;2024-01-15T06:36:29;13.13;;;5.90;;
75437;SDS011;64015;49.392;15.582;2024-01-15T06:38:58;10.70;;;4.32;;
75437;SDS011;64015;49.392;15.582;2024-01-15T06:41:23;6.72;;;4.07;;
75437;SDS011;64015;49.392;15.582;2024-01-15T06:43:51;10.52;;;4.70;;
75437;SDS011;64015;49.392;15.582;2024-01-15T06:46:22;9.10;;;4.85;;
75437;SDS011;64015;49.392;15.582;2024-01-15T06:48:48;10.55;;;4.43;;
75437;SDS011;64015;49.392;15.582;2024-01-15T06:51:15;13.75;;;5.78;;
75437;SDS011;64015;49.392;15.582;2024-01-15T06:53:43;16.05;;;5.65;;
75437;SDS011;64015;49.392;15.582;2024-01-15T06:56:08;11.75;;;5.97;;
75437;SDS011;64015;49.392;15.582;2024-01-15T06:58:34;13.55;;;6.35;;
75437;SDS011;64015;49.392;15.582;2024-01-15T07:01:00;10.88;;;5.18;;
75437;SDS011;64015;49.392;15.582;2024-01-15T07:03:26;11.80;;;4.63;;
75437;SDS011;64015;49.392;15.582;2024-01-15T07:05:51;9.23;;;4.32;;
75437;SDS011;64015;49.392;15.582;2024-01-15T07:08:17;14.20;;;5.90;;
75437;SDS011;64015;49.392;15.582;2024-01-15T07:10:43;15.60;;;5.43;;
75437;SDS011;64015;49.392;15.582;2024-01-15T07:13:08;10.90;;;5.53;;
75437;SDS011;64015;49.392;15.582;2024-01-15T07:15:34;16.85;;;6.13;;
75437;SDS011;64015;49.392;15.582;2024-01-15T07:18:00;12.35;;;6.00;;
75437;SDS011;64015;49.392;15.582;2024-01-15T07:20:26;11.55;;;4.15;;
75437;SDS011;64015;49.392;15.582;2024-01-15T07:22:52;14.73;;;5.80;;
75437;SDS011;64015;49.392;15.582;2024-01-15T07:25:17;7.95;;;3.58;;
75437;SDS011;64015;49.392;15.582;2024-01-15T07:28:01;9.93;;;4.80;;
75437;SDS011;64015;49.392;15.582;2024-01-15T07:30:29;15.68;;;7.07;;
75437;SDS011;64015;49.392;15.582;2024-01-15T07:32:54;12.65;;;5.28;;
75437;SDS011;64015;49.392;15.582;2024-01-15T07:35:20;7.95;;;4.75;;
75437;SDS011;64015;49.392;15.582;2024-01-15T07:37:46;9.93;;;4.90;;
75437;SDS011;64015;49.392;15.582;2024-01-15T07:40:12;9.52;;;4.85;;
75437;SDS011;64015;49.392;15.582;2024-01-15T07:42:37;7.55;;;4.00;;
75437;SDS011;64015;49.392;15.582;2024-01-15T07:45:04;10.10;;;3.88;;
75437;SDS011;64015;49.392;15.582;2024-01-15T07:47:30;10.02;;;4.35;;
75437;SDS011;64015;49.392;15.582;2024-01-15T07:49:57;7.07;;;3.03;;
75437;SDS011;64015;49.392;15.582;2024-01-15T07:52:32;10.82;;;5.22;;
75437;SDS011;64015;49.392;15.582;2024-01-15T07:54:58;9.55;;;3.90;;
75437;SDS011;64015;49.392;15.582;2024-01-15T07:57:28;8.32;;;4.22;;
75437;SDS011;64015;49.392;15.582;2024-01-15T07:59:54;8.73;;;3.80;;
75437;SDS011;64015;49.392;15.582;2024-01-15T08:02:20;11.90;;;3.67;;
75437;SDS011;64015;49.392;15.582;2024-01-15T08:04:47;7.63;;;3.30;;
75437;SDS011;64015;49.392;15.582;2024-01-15T08:07:12;9.93;;;3.38;;
75437;SDS011;64015;49.392;15.582;2024-01-15T08:09:38;7.63;;;2.97;;
75437;SDS011;64015;49.392;15.582;2024-01-15T08:12:04;10.90;;;3.65;;
75437;SDS011;64015;49.392;15.582;2024-01-15T08:14:31;7.55;;;3.97;;
75437;SDS011;64015;49.392;15.582;2024-01-15T08:16:57;7.20;;;3.90;;
75437;SDS011;64015;49.392;15.582;2024-01-15T08:19:27;5.70;;;2.72;;
75437;SDS011;64015;49.392;15.582;2024-01-15T08:21:52;7.72;;;3.55;;
75437;SDS011;64015;49.392;15.582;2024-01-15T08:24:19;9.18;;;3.65;;
75437;SDS011;64015;49.392;15.582;2024-01-15T08:26:47;6.43;;;3.65;;
75437;SDS011;64015;49.392;15.582;2024-01-15T08:29:13;6.85;;;2.88;;
75437;SDS011;64015;49.392;15.582;2024-01-15T08:31:38;7.65;;;3.45;;
75437;SDS011;64015;49.392;15.582;2024-01-15T08:34:04;9.25;;;4.07;;
75437;SDS011;64015;49.392;15.582;2024-01-15T08:36:30;8.60;;;3.58;;
75437;SDS011;64015;49.392;15.582;2024-01-15T08:38:56;10.65;;;4.18;;
75437;SDS011;64015;49.392;15.582;2024-01-15T08:41:22;12.13;;;4.88;;
75437;SDS011;64015;49.392;15.582;2024-01-15T08:43:49;7.50;;;3.65;;
75437;SDS011;64015;49.392;15.582;2024-01-15T08:46:14;7.78;;;3.30;;
75437;SDS011;64015;49.392;15.582;2024-01-15T08:48:40;7.65;;;3.40;;
75437;SDS011;64015;49.392;15.582;2024-01-15T08:51:06;8.48;;;3.85;;
75437;SDS011;64015;49.392;15.582;2024-01-15T08:53:33;9.90;;;3.85;;
75437;SDS011;64015;49.392;15.582;2024-01-15T08:56:01;8.45;;;3.85;;
75437;SDS011;64015;49.392;15.582;2024-01-15T08:58:27;7.53;;;3.40;;
75437;SDS011;64015;49.392;15.582;2024-01-15T09:00:53;11.90;;;3.65;;
75437;SDS011;64015;49.392;15.582;2024-01-15T09:03:19;7.65;;;4.38;;
75437;SDS011;64015;49.392;15.582;2024-01-15T09:05:45;7.03;;;2.97;;
75437;SDS011;64015;49.392;15.582;2024-01-15T09:08:11;7.90;;;4.13;;
75437;SDS011;64015;49.392;15.582;2024-01-15T09:10:37;10.23;;;3.40;;
75437;SDS011;64015;49.392;15.582;2024-01-15T09:13:03;10.63;;;4.40;;
75437;SDS011;64015;49.392;15.582;2024-01-15T09:15:29;7.10;;;3.53;;
75437;SDS011;64015;49.392;15.582;2024-01-15T09:17:55;7.55;;;3.90;;
75437;SDS011;64015;49.392;15.582;2024-01-15T09:20:22;9.45;;;4.00;;
75437;SDS011;64015;49.392;15.582;2024-01-15T09:22:48;15.10;;;5.22;;
75437;SDS011;64015;49.392;15.582;2024-01-15T09:25:14;9.30;;;4.05;;
75437;SDS011;64015;49.392;15.582;2024-01-15T09:27:39;10.85;;;4.63;;
75437;SDS011;64015;49.392;15.582;2024-01-15T09:30:05;8.43;;;3.42;;
75437;SDS011;64015;49.392;15.582;2024-01-15T09:32:31;6.93;;;3.70;;
75437;SDS011;64015;49.392;15.582;2024-01-15T09:34:58;6.82;;;3.55;;
75437;SDS011;64015;49.392;15.582;2024-01-15T09:37:24;7.65;;;3.55;;
75437;SDS011;64015;49.392;15.582;2024-01-15T09:39:49;9.70;;;3.58;;
75437;SDS011;64015;49.392;15.582;2024-01-15T09:42:16;9.27;;;4.50;;
75437;SDS011;64015;49.392;15.582;2024-01-15T09:44:42;9.30;;;4.35;;
75437;SDS011;64015;49.392;15.582;2024-01-15T09:47:08;8.38;;;3.28;;
75437;SDS011;64015;49.392;15.582;2024-01-15T09:49:35;9.60;;;3.92;;
75437;SDS011;64015;49.392;15.582;2024-01-15T09:52:01;8.70;;;3.30;;
75437;SDS011;64015;49.392;15.582;2024-01-15T09:54:27;4.35;;;2.30;;
75437;SDS011;64015;49.392;15.582;2024-01-15T09:56:54;8.77;;;4.32;;
75437;SDS011;64015;49.392;15.582;2024-01-15T09:59:29;9.65;;;4.00;;
75437;SDS011;64015;49.392;15.582;2024-01-15T10:01:56;8.52;;;3.75;;
75437;SDS011;64015;49.392;15.582;2024-01-15T10:04:24;6.22;;;2.70;;
75437;SDS011;64015;49.392;15.582;2024-01-15T10:06:50;9.48;;;3.58;;
75437;SDS011;64015;49.392;15.582;2024-01-15T10:09:16;6.50;;;3.47;;
75437;SDS011;64015;49.392;15.582;2024-01-15T10:11:43;7.90;;;3.65;;
75437;SDS011;64015;49.392;15.582;2024-01-15T10:14:10;6.97;;;3.20;;
75437;SDS011;64015;49.392;15.582;2024-01-15T10:16:41;5.57;;;2.42;;
75437;SDS011;64015;49.392;15.582;2024-01-15T10:19:07;7.07;;;2.83;;
75437;SDS011;64015;49.392;15.582;2024-01-15T10:21:33;7.35;;;3.08;;
75437;SDS011;64015;49.392;15.582;2024-01-15T10:24:02;8.05;;;3.53;;
75437;SDS011;64015;49.392;15.582;2024-01-15T10:26:30;7.97;;;4.22;;
75437;SDS011;64015;49.392;15.582;2024-01-15T10:28:56;6.93;;;4.38;;
75437;SDS011;64015;49.392;15.582;2024-01-15T10:31:22;6.13;;;2.78;;
75437;SDS011;64015;49.392;15.582;2024-01-15T10:33:48;9.32;;;3.75;;
75437;SDS011;64015;49.392;15.582;2024-01-15T10:36:15;6.70;;;3.25;;
75437;SDS011;64015;49.392;15.582;2024-01-15T10:38:42;5.32;;;2.70;;
75437;SDS011;64015;49.392;15.582;2024-01-15T10:41:09;7.10;;;3.10;;
75437;SDS011;64015;49.392;15.582;2024-01-15T10:43:34;5.95;;;3.10;;
75437;SDS011;64015;49.392;15.582;2024-01-15T10:46:00;5.05;;;2.72;;
75437;SDS011;64015;49.392;15.582;2024-01-15T10:48:26;7.30;;;2.53;;
75437;SDS011;64015;49.392;15.582;2024-01-15T10:50:54;6.35;;;3.58;;
75437;SDS011;64015;49.392;15.582;2024-01-15T10:53:19;7.28;;;4.22;;
75437;SDS011;64015;49.392;15.582;2024-01-15T10:55:46;5.88;;;3.03;;
75437;SDS011;64015;49.392;15.582;2024-01-15T10:58:14;7.03;;;3.28;;
75437;SDS011;64015;49.392;15.582;2024-01-15T11:00:41;7.75;;;3.78;;
75437;SDS011;64015;49.392;15.582;2024-01-15T11:03:08;4.80;;;2.63;;
75437;SDS011;64015;49.392;15.582;2024-01-15T11:05:53;5.60;;;2.72;;
75437;SDS011;64015;49.392;15.582;2024-01-15T11:08:19;8.50;;;3.70;;
75437;SDS011;64015;49.392;15.582;2024-01-15T11:10:47;9.30;;;3.65;;
75437;SDS011;64015;49.392;15.582;2024-01-15T11:16:06;6.28;;;3.95;;
75437;SDS011;64015;49.392;15.582;2024-01-15T11:18:36;6.65;;;3.53;;
75437;SDS011;64015;49.392;15.582;2024-01-15T11:23:42;6.85;;;3.35;;
75437;SDS011;64015;49.392;15.582;2024-01-15T11:37:28;7.57;;;3.47;;
75437;SDS011;64015;49.392;15.582;2024-01-15T11:40:15;6.72;;;2.83;;
75437;SDS011;64015;49.392;15.582;2024-01-15T11:42:48;5.63;;;2.65;;
75437;SDS011;64015;49.392;15.582;2024-01-15T11:45:20;5.43;;;2.95;;
75437;SDS011;64015;49.392;15.582;2024-01-15T11:48:29;7.13;;;3.38;;
75437;SDS011;64015;49.392;15.582;2024-01-15T11:50:48;7.93;;;3.03;;
75437;SDS011;64015;49.392;15.582;2024-01-15T11:55:59;7.22;;;3.08;;
75437;SDS011;64015;49.392;15.582;2024-01-15T11:58:28;4.63;;;3.05;;
75437;SDS011;64015;49.392;15.582;2024-01-15T12:00:53;4.72;;;2.08;;
75437;SDS011;64015;49.392;15.582;2024-01-15T12:03:21;8.32;;;2.88;;
75437;SDS011;64015;49.392;15.582;2024-01-15T12:05:53;6.85;;;3.30;;
75437;SDS011;64015;49.392;15.582;2024-01-15T12:08:23;5.50;;;2.83;;
75437;SDS011;64015;49.392;15.582;2024-01-15T12:10:49;7.13;;;3.70;;
75437;SDS011;64015;49.392;15.582;2024-01-15T12:13:15;7.30;;;2.67;;
75437;SDS011;64015;49.392;15.582;2024-01-15T12:15:43;5.93;;;3.00;;
75437;SDS011;64015;49.392;15.582;2024-01-15T12:18:11;5.90;;;3.28;;
75437;SDS011;64015;49.392;15.582;2024-01-15T12:20:41;6.32;;;3.13;;
75437;SDS011;64015;49.392;15.582;2024-01-15T12:23:12;4.75;;;2.53;;
75437;SDS011;64015;49.392;15.582;2024-01-15T12:25:39;5.93;;;2.45;;
75437;SDS011;64015;49.392;15.582;2024-01-15T12:28:05;6.53;;;2.35;;
75437;SDS011;64015;49.392;15.582;2024-01-15T12:30:32;7.80;;;2.58;;
75437;SDS011;64015;49.392;15.582;2024-01-15T12:33:02;4.05;;;2.20;;
75437;SDS011;64015;49.392;15.582;2024-01-15T12:35:36;5.68;;;3.20;;
75437;SDS011;64015;49.392;15.582;2024-01-15T12:38:02;6.75;;;2.90;;
75437;SDS011;64015;49.392;15.582;2024-01-15T12:40:28;7.68;;;3.08;;
75437;SDS011;64015;49.392;15.582;2024-01-15T12:42:55;3.95;;;2.20;;
75437;SDS011;64015;49.392;15.582;2024-01-15T12:45:20;8.82;;;3.00;;
75437;SDS011;64015;49.392;15.582;2024-01-15T12:47:46;5.03;;;2.67;;
75437;SDS011;64015;49.392;15.582;2024-01-15T12:50:12;4.53;;;2.03;;
75437;SDS011;64015;49.392;15.582;2024-01-15T12:52:41;6.65;;;3.20;;
75437;SDS011;64015;49.392;15.582;2024-01-15T12:55:07;5.03;;;2.60;;
75437;SDS011;64015;49.392;15.582;2024-01-15T13:00:01;7.25;;;3.33;;
75437;SDS011;64015;49.392;15.582;2024-01-15T13:02:30;4.28;;;2.15;;
75437;SDS011;64015;49.392;15.582;2024-01-15T13:04:55;5.55;;;2.78;;
75437;SDS011;64015;49.392;15.582;2024-01-15T13:07:24;6.57;;;2.88;;
75437;SDS011;64015;49.392;15.582;2024-01-15T13:09:50;4.32;;;1.92;;
75437;SDS011;64015;49.392;15.582;2024-01-15T13:12:19;6.50;;;2.92;;
75437;SDS011;64015;49.392;15.582;2024-01-15T13:14:45;5.25;;;2.22;;
75437;SDS011;64015;49.392;15.582;2024-01-15T13:17:13;4.55;;;2.10;;
75437;SDS011;64015;49.392;15.582;2024-01-15T13:19:40;5.50;;;2.40;;
75437;SDS011;64015;49.392;15.582;2024-01-15T13:22:05;5.65;;;2.72;;
75437;SDS011;64015;49.392;15.582;2024-01-15T13:24:35;4.82;;;1.92;;
75437;SDS011;64015;49.392;15.582;2024-01-15T13:27:04;5.68;;;2.38;;
75437;SDS011;64015;49.392;15.582;2024-01-15T13:29:31;5.53;;;2.22;;
75437;SDS011;64015;49.392;15.582;2024-01-15T13:32:09;4.68;;;2.28;;
75437;SDS011;64015;49.392;15.582;2024-01-15T13:34:55;7.07;;;2.58;;
75437;SDS011;64015;49.392;15.582;2024-01-15T13:49:02;2.35;;;1.23;;
75437;SDS011;64015;49.392;15.582;2024-01-15T13:52:06;1.88;;;1.27;;
75437;SDS011;64015;49.392;15.582;2024-01-15T13:57:16;3.30;;;1.55;;
75437;SDS011;64015;49.392;15.582;2024-01-15T13:59:43;2.38;;;1.33;;
75437;SDS011;64015;49.392;15.582;2024-01-15T14:02:17;3.28;;;1.60;;
75437;SDS011;64015;49.392;15.582;2024-01-15T14:12:09;4.35;;;2.03;;
75437;SDS011;64015;49.392;15.582;2024-01-15T14:14:47;4.03;;;2.20;;
75437;SDS011;64015;49.392;15.582;2024-01-15T14:18:01;2.92;;;1.70;;
75437;SDS011;64015;49.392;15.582;2024-01-15T14:20:39;4.13;;;2.08;;
75437;SDS011;64015;49.392;15.582;2024-01-15T14:23:05;3.03;;;1.83;;
75437;SDS011;64015;49.392;15.582;2024-01-15T14:25:54;3.33;;;1.42;;
75437;SDS011;64015;49.392;15.582;2024-01-15T14:28:20;3.10;;;1.55;;
75437;SDS011;64015;49.392;15.582;2024-01-15T14:30:49;2.88;;;2.20;;
75437;SDS011;64015;49.392;15.582;2024-01-15T14:33:19;3.40;;;1.88;;
75437;SDS011;64015;49.392;15.582;2024-01-15T14:36:00;2.25;;;1.20;;
75437;SDS011;64015;49.392;15.582;2024-01-15T14:39:14;2.85;;;1.77;;
75437;SDS011;64015;49.392;15.582;2024-01-15T14:50:10;5.00;;;1.60;;
75437;SDS011;64015;49.392;15.582;2024-01-15T14:52:39;2.47;;;1.40;;
75437;SDS011;64015;49.392;15.582;2024-01-15T14:55:09;4.82;;;1.90;;
75437;SDS011;64015;49.392;15.582;2024-01-15T14:57:35;2.90;;;1.20;;
75437;SDS011;64015;49.392;15.582;2024-01-15T15:10:56;3.22;;;1.23;;
75437;SDS011;64015;49.392;15.582;2024-01-15T15:13:22;4.15;;;1.50;;
75437;SDS011;64015;49.392;15.582;2024-01-15T15:15:51;3.03;;;1.67;;
75437;SDS011;64015;49.392;15.582;2024-01-15T15:18:27;5.80;;;1.77;;
75437;SDS011;64015;49.392;15.582;2024-01-15T15:21:08;5.53;;;2.42;;
75437;SDS011;64015;49.392;15.582;2024-01-15T15:23:35;9.05;;;2.22;;
75437;SDS011;64015;49.392;15.582;2024-01-15T15:26:06;5.07;;;2.40;;
75437;SDS011;64015;49.392;15.582;2024-01-15T15:28:35;3.00;;;1.83;;
75437;SDS011;64015;49.392;15.582;2024-01-15T15:31:04;4.10;;;1.92;;
75437;SDS011;64015;49.392;15.582;2024-01-15T15:33:48;1.85;;;1.13;;
75437;SDS011;64015;49.392;15.582;2024-01-15T15:36:14;4.65;;;1.65;;
75437;SDS011;64015;49.392;15.582;2024-01-15T15:38:42;4.40;;;2.00;;
75437;SDS011;64015;49.392;15.582;2024-01-15T15:41:09;3.10;;;0.90;;
75437;SDS011;64015;49.392;15.582;2024-01-15T15:43:35;2.45;;;1.50;;
75437;SDS011;64015;49.392;15.582;2024-01-15T15:46:04;4.13;;;2.17;;
75437;SDS011;64015;49.392;15.582;2024-01-15T15:48:39;2.25;;;1.10;;
75437;SDS011;64015;49.392;15.582;2024-01-15T15:51:23;3.53;;;1.90;;
75437;SDS011;64015;49.392;15.582;2024-01-15T15:54:19;4.18;;;1.48;;
75437;SDS011;64015;49.392;15.582;2024-01-15T15:56:55;2.72;;;1.65;;
75437;SDS011;64015;49.392;15.582;2024-01-15T15:59:21;2.33;;;1.30;;
75437;SDS011;64015;49.392;15.582;2024-01-15T16:01:49;4.15;;;1.48;;
75437;SDS011;64015;49.392;15.582;2024-01-15T16:04:15;7.47;;;1.70;;
75437;SDS011;64015;49.392;15.582;2024-01-15T16:06:43;2.33;;;1.50;;
75437;SDS011;64015;49.392;15.582;2024-01-15T16:09:12;3.13;;;1.80;;
75437;SDS011;64015;49.392;15.582;2024-01-15T16:14:05;2.50;;;1.20;;
75437;SDS011;64015;49.392;15.582;2024-01-15T16:16:32;2.38;;;1.33;;
75437;SDS011;64015;49.392;15.582;2024-01-15T16:18:57;1.90;;;1.15;;